sensor_id;sensor_type;location;lat;lon;timestamp;P1;P2;P0
73973;PMS5003;62336;-26.094;27.994;2022-10-16T00:02:11;74;71;
73973;PMS5003;62336;-26.094;27.994;2022-10-16T00:04:36;79;74;
73973;PMS5003;62336;-26.094;27.994;2022-10-16T00:07:02;78;76;
73973;PMS5003;62336;-26.094;27.994;2022-10-16T00:09:27;78;72;
73973;PMS5003;62336;-26.094;27.994;2022-10-16T00:11:53;77;73;
73973;PMS5003;62336;-26.094;27.994;2022-10-16T00:14:18;80;74;
73973;PMS5003;62336;-26.094;27.994;2022-10-16T00:16:43;74;70;
73973;PMS5003;62336;-26.094;27.994;2022-10-16T00:19:09;69;68;
73973;PMS5003;62336;-26.094;27.994;2022-10-16T00:21:35;75;71;
73973;PMS5003;62336;-26.094;27.994;2022-10-16T00:24:02;80;74;
73973;PMS5003;62336;-26.094;27.994;2022-10-16T00:26:26;68;62;
73973;PMS5003;62336;-26.094;27.994;2022-10-16T00:28:52;73;68;
73973;PMS5003;62336;-26.094;27.994;2022-10-16T00:31:18;64;60;
73973;PMS5003;62336;-26.094;27.994;2022-10-16T00:33:43;61;57;
73973;PMS5003;62336;-26.094;27.994;2022-10-16T00:36:10;55;48;
73973;PMS5003;62336;-26.094;27.994;2022-10-16T00:38:34;50;49;
73973;PMS5003;62336;-26.094;27.994;2022-10-16T00:40:59;53;51;
73973;PMS5003;62336;-26.094;27.994;2022-10-16T00:43:34;49;47;
73973;PMS5003;62336;-26.094;27.994;2022-10-16T00:45:50;45;41;
73973;PMS5003;62336;-26.094;27.994;2022-10-16T00:48:15;49;46;
73973;PMS5003;62336;-26.094;27.994;2022-10-16T00:50:41;49;48;
73973;PMS5003;62336;-26.094;27.994;2022-10-16T00:53:06;41;38;
73973;PMS5003;62336;-26.094;27.994;2022-10-16T00:55:31;44;42;
73973;PMS5003;62336;-26.094;27.994;2022-10-16T00:57:58;42;40;
73973;PMS5003;62336;-26.094;27.994;2022-10-16T01:00:24;48;44;
73973;PMS5003;62336;-26.094;27.994;2022-10-16T01:02:52;43;39;
73973;PMS5003;62336;-26.094;27.994;2022-10-16T01:05:19;45;44;
73973;PMS5003;62336;-26.094;27.994;2022-10-16T01:07:41;44;43;
73973;PMS5003;62336;-26.094;27.994;2022-10-16T01:10:07;47;43;
73973;PMS5003;62336;-26.094;27.994;2022-10-16T01:12:32;48;45;
73973;PMS5003;62336;-26.094;27.994;2022-10-16T01:14:56;39;35;
73973;PMS5003;62336;-26.094;27.994;2022-10-16T01:17:22;50;47;
73973;PMS5003;62336;-26.094;27.994;2022-10-16T01:19:57;48;45;
73973;PMS5003;62336;-26.094;27.994;2022-10-16T01:22:12;41;40;
73973;PMS5003;62336;-26.094;27.994;2022-10-16T01:24:38;46;42;
73973;PMS5003;62336;-26.094;27.994;2022-10-16T01:27:05;41;37;
73973;PMS5003;62336;-26.094;27.994;2022-10-16T01:29:29;48;42;
73973;PMS5003;62336;-26.094;27.994;2022-10-16T01:31:54;41;38;
73973;PMS5003;62336;-26.094;27.994;2022-10-16T01:34:19;43;39;
73973;PMS5003;62336;-26.094;27.994;2022-10-16T01:36:45;41;40;
73973;PMS5003;62336;-26.094;27.994;2022-10-16T01:39:10;36;32;
73973;PMS5003;62336;-26.094;27.994;2022-10-16T01:41:36;46;40;
73973;PMS5003;62336;-26.094;27.994;2022-10-16T01:44:02;39;38;
73973;PMS5003;62336;-26.094;27.994;2022-10-16T01:46:26;41;37;
73973;PMS5003;62336;-26.094;27.994;2022-10-16T01:48:51;37;35;
73973;PMS5003;62336;-26.094;27.994;2022-10-16T01:51:16;38;37;
73973;PMS5003;62336;-26.094;27.994;2022-10-16T01:53:42;39;37;
73973;PMS5003;62336;-26.094;27.994;2022-10-16T01:56:08;38;38;
73973;PMS5003;62336;-26.094;27.994;2022-10-16T01:58:33;37;34;
73973;PMS5003;62336;-26.094;27.994;2022-10-16T02:00:58;40;37;
73973;PMS5003;62336;-26.094;27.994;2022-10-16T02:03:23;39;36;
73973;PMS5003;62336;-26.094;27.994;2022-10-16T02:05:50;37;36;
73973;PMS5003;62336;-26.094;27.994;2022-10-16T02:08:14;38;38;
73973;PMS5003;62336;-26.094;27.994;2022-10-16T02:10:40;43;39;
73973;PMS5003;62336;-26.094;27.994;2022-10-16T03:07:57;60;33;
73973;PMS5003;62336;-26.094;27.994;2022-10-16T03:10:22;40;39;
73973;PMS5003;62336;-26.094;27.994;2022-10-16T03:12:52;43;41;
73973;PMS5003;62336;-26.094;27.994;2022-10-16T03:15:19;46;42;
73973;PMS5003;62336;-26.094;27.994;2022-10-16T03:17:39;40;40;
73973;PMS5003;62336;-26.094;27.994;2022-10-16T03:20:04;40;36;
73973;PMS5003;62336;-26.094;27.994;2022-10-16T03:22:29;40;36;
73973;PMS5003;62336;-26.094;27.994;2022-10-16T03:24:55;43;40;
73973;PMS5003;62336;-26.094;27.994;2022-10-16T03:27:20;45;41;
73973;PMS5003;62336;-26.094;27.994;2022-10-16T03:29:45;42;39;
73973;PMS5003;62336;-26.094;27.994;2022-10-16T03:32:10;44;42;
73973;PMS5003;62336;-26.094;27.994;2022-10-16T03:34:36;48;45;
73973;PMS5003;62336;-26.094;27.994;2022-10-16T03:37:01;47;45;
73973;PMS5003;62336;-26.094;27.994;2022-10-16T03:39:27;47;42;
73973;PMS5003;62336;-26.094;27.994;2022-10-16T03:41:52;43;40;
73973;PMS5003;62336;-26.094;27.994;2022-10-16T03:44:18;41;39;
73973;PMS5003;62336;-26.094;27.994;2022-10-16T03:46:42;48;43;
73973;PMS5003;62336;-26.094;27.994;2022-10-16T03:49:08;50;45;
73973;PMS5003;62336;-26.094;27.994;2022-10-16T03:51:32;44;43;
73973;PMS5003;62336;-26.094;27.994;2022-10-16T03:53:59;50;47;
73973;PMS5003;62336;-26.094;27.994;2022-10-16T03:56:23;45;44;
73973;PMS5003;62336;-26.094;27.994;2022-10-16T03:58:49;54;50;
73973;PMS5003;62336;-26.094;27.994;2022-10-16T04:01:15;47;46;
73973;PMS5003;62336;-26.094;27.994;2022-10-16T04:03:40;52;49;
73973;PMS5003;62336;-26.094;27.994;2022-10-16T04:06:05;54;51;
73973;PMS5003;62336;-26.094;27.994;2022-10-16T04:08:31;57;51;
73973;PMS5003;62336;-26.094;27.994;2022-10-16T04:11:26;47;45;
73973;PMS5003;62336;-26.094;27.994;2022-10-16T04:13:51;53;50;
73973;PMS5003;62336;-26.094;27.994;2022-10-16T04:16:17;51;50;
73973;PMS5003;62336;-26.094;27.994;2022-10-16T04:18:42;50;49;
73973;PMS5003;62336;-26.094;27.994;2022-10-16T04:21:08;51;49;
73973;PMS5003;62336;-26.094;27.994;2022-10-16T04:23:34;52;50;
73973;PMS5003;62336;-26.094;27.994;2022-10-16T04:25:59;59;51;
73973;PMS5003;62336;-26.094;27.994;2022-10-16T04:28:25;57;51;
73973;PMS5003;62336;-26.094;27.994;2022-10-16T04:30:50;52;48;
73973;PMS5003;62336;-26.094;27.994;2022-10-16T04:33:15;50;46;
73973;PMS5003;62336;-26.094;27.994;2022-10-16T04:35:41;50;45;
73973;PMS5003;62336;-26.094;27.994;2022-10-16T04:38:06;53;46;
73973;PMS5003;62336;-26.094;27.994;2022-10-16T04:40:31;51;46;
73973;PMS5003;62336;-26.094;27.994;2022-10-16T04:42:56;47;45;
73973;PMS5003;62336;-26.094;27.994;2022-10-16T04:45:22;52;48;
73973;PMS5003;62336;-26.094;27.994;2022-10-16T04:47:48;53;45;
73973;PMS5003;62336;-26.094;27.994;2022-10-16T04:50:13;49;47;
73973;PMS5003;62336;-26.094;27.994;2022-10-16T04:52:39;56;51;
73973;PMS5003;62336;-26.094;27.994;2022-10-16T04:55:05;52;46;
73973;PMS5003;62336;-26.094;27.994;2022-10-16T04:57:30;49;47;
73973;PMS5003;62336;-26.094;27.994;2022-10-16T04:59:55;57;51;
73973;PMS5003;62336;-26.094;27.994;2022-10-16T05:02:20;48;44;
73973;PMS5003;62336;-26.094;27.994;2022-10-16T05:04:46;57;51;
73973;PMS5003;62336;-26.094;27.994;2022-10-16T05:07:11;51;45;
73973;PMS5003;62336;-26.094;27.994;2022-10-16T05:09:37;56;49;
73973;PMS5003;62336;-26.094;27.994;2022-10-16T05:12:03;49;45;
73973;PMS5003;62336;-26.094;27.994;2022-10-16T05:14:28;54;51;
73973;PMS5003;62336;-26.094;27.994;2022-10-16T05:16:53;56;50;
73973;PMS5003;62336;-26.094;27.994;2022-10-16T05:19:19;53;46;
73973;PMS5003;62336;-26.094;27.994;2022-10-16T05:21:44;55;52;
73973;PMS5003;62336;-26.094;27.994;2022-10-16T05:24:10;56;48;
73973;PMS5003;62336;-26.094;27.994;2022-10-16T05:26:35;54;49;
73973;PMS5003;62336;-26.094;27.994;2022-10-16T05:29:00;51;48;
73973;PMS5003;62336;-26.094;27.994;2022-10-16T05:31:26;54;49;
73973;PMS5003;62336;-26.094;27.994;2022-10-16T05:33:52;47;44;
73973;PMS5003;62336;-26.094;27.994;2022-10-16T05:36:17;48;44;
73973;PMS5003;62336;-26.094;27.994;2022-10-16T05:38:43;48;43;
73973;PMS5003;62336;-26.094;27.994;2022-10-16T05:41:08;46;43;
73973;PMS5003;62336;-26.094;27.994;2022-10-16T05:43:33;45;42;
73973;PMS5003;62336;-26.094;27.994;2022-10-16T05:46:00;46;42;
73973;PMS5003;62336;-26.094;27.994;2022-10-16T05:48:26;42;40;
73973;PMS5003;62336;-26.094;27.994;2022-10-16T05:53:16;40;35;
73973;PMS5003;62336;-26.094;27.994;2022-10-16T05:55:42;40;40;
73973;PMS5003;62336;-26.094;27.994;2022-10-16T05:58:07;42;41;
73973;PMS5003;62336;-26.094;27.994;2022-10-16T06:00:33;43;40;
73973;PMS5003;62336;-26.094;27.994;2022-10-16T06:02:58;41;40;
73973;PMS5003;62336;-26.094;27.994;2022-10-16T06:05:23;50;45;
73973;PMS5003;62336;-26.094;27.994;2022-10-16T06:07:49;42;41;
73973;PMS5003;62336;-26.094;27.994;2022-10-16T06:10:15;46;45;
73973;PMS5003;62336;-26.094;27.994;2022-10-16T06:12:40;42;38;
73973;PMS5003;62336;-26.094;27.994;2022-10-16T06:15:05;42;39;
73973;PMS5003;62336;-26.094;27.994;2022-10-16T06:17:31;50;46;
73973;PMS5003;62336;-26.094;27.994;2022-10-16T06:19:56;41;39;
73973;PMS5003;62336;-26.094;27.994;2022-10-16T06:22:21;43;37;
73973;PMS5003;62336;-26.094;27.994;2022-10-16T06:24:47;41;38;
73973;PMS5003;62336;-26.094;27.994;2022-10-16T06:27:12;39;35;
73973;PMS5003;62336;-26.094;27.994;2022-10-16T06:29:37;36;35;
73973;PMS5003;62336;-26.094;27.994;2022-10-16T06:32:02;36;36;
73973;PMS5003;62336;-26.094;27.994;2022-10-16T06:34:28;36;33;
73973;PMS5003;62336;-26.094;27.994;2022-10-16T06:36:53;31;30;
73973;PMS5003;62336;-26.094;27.994;2022-10-16T06:39:18;35;32;
73973;PMS5003;62336;-26.094;27.994;2022-10-16T06:41:43;34;33;
73973;PMS5003;62336;-26.094;27.994;2022-10-16T06:44:09;35;32;
73973;PMS5003;62336;-26.094;27.994;2022-10-16T06:46:35;41;39;
73973;PMS5003;62336;-26.094;27.994;2022-10-16T06:49:00;36;32;
73973;PMS5003;62336;-26.094;27.994;2022-10-16T06:51:26;36;33;
73973;PMS5003;62336;-26.094;27.994;2022-10-16T06:53:53;34;32;
73973;PMS5003;62336;-26.094;27.994;2022-10-16T06:56:18;36;34;
73973;PMS5003;62336;-26.094;27.994;2022-10-16T06:58:42;33;31;
73973;PMS5003;62336;-26.094;27.994;2022-10-16T07:01:08;32;30;
73973;PMS5003;62336;-26.094;27.994;2022-10-16T07:03:35;37;35;
73973;PMS5003;62336;-26.094;27.994;2022-10-16T07:06:01;32;29;
73973;PMS5003;62336;-26.094;27.994;2022-10-16T07:08:24;30;26;
73973;PMS5003;62336;-26.094;27.994;2022-10-16T07:10:57;37;34;
73973;PMS5003;62336;-26.094;27.994;2022-10-16T07:13:14;40;38;
73973;PMS5003;62336;-26.094;27.994;2022-10-16T07:15:40;36;33;
73973;PMS5003;62336;-26.094;27.994;2022-10-16T07:18:05;37;33;
73973;PMS5003;62336;-26.094;27.994;2022-10-16T07:20:30;37;35;
73973;PMS5003;62336;-26.094;27.994;2022-10-16T07:22:55;37;34;
73973;PMS5003;62336;-26.094;27.994;2022-10-16T07:25:20;40;39;
73973;PMS5003;62336;-26.094;27.994;2022-10-16T07:27:46;29;28;
73973;PMS5003;62336;-26.094;27.994;2022-10-16T07:30:12;37;34;
73973;PMS5003;62336;-26.094;27.994;2022-10-16T07:32:38;34;32;
73973;PMS5003;62336;-26.094;27.994;2022-10-16T07:35:03;32;31;
73973;PMS5003;62336;-26.094;27.994;2022-10-16T07:37:28;31;29;
73973;PMS5003;62336;-26.094;27.994;2022-10-16T07:39:53;33;31;
73973;PMS5003;62336;-26.094;27.994;2022-10-16T07:42:19;34;30;
73973;PMS5003;62336;-26.094;27.994;2022-10-16T07:44:44;32;29;
73973;PMS5003;62336;-26.094;27.994;2022-10-16T07:47:11;31;30;
73973;PMS5003;62336;-26.094;27.994;2022-10-16T07:49:35;28;26;
73973;PMS5003;62336;-26.094;27.994;2022-10-16T07:52:00;27;25;
73973;PMS5003;62336;-26.094;27.994;2022-10-16T07:54:26;22;19;
73973;PMS5003;62336;-26.094;27.994;2022-10-16T07:56:52;23;21;
73973;PMS5003;62336;-26.094;27.994;2022-10-16T07:59:17;20;20;
73973;PMS5003;62336;-26.094;27.994;2022-10-16T08:01:42;26;24;
73973;PMS5003;62336;-26.094;27.994;2022-10-16T08:04:08;22;20;
73973;PMS5003;62336;-26.094;27.994;2022-10-16T08:06:35;22;20;
73973;PMS5003;62336;-26.094;27.994;2022-10-16T08:08:59;21;20;
73973;PMS5003;62336;-26.094;27.994;2022-10-16T08:11:24;24;22;
73973;PMS5003;62336;-26.094;27.994;2022-10-16T08:13:50;22;20;
73973;PMS5003;62336;-26.094;27.994;2022-10-16T08:16:15;20;19;
73973;PMS5003;62336;-26.094;27.994;2022-10-16T08:18:41;20;18;
73973;PMS5003;62336;-26.094;27.994;2022-10-16T08:21:08;17;16;
73973;PMS5003;62336;-26.094;27.994;2022-10-16T08:23:33;20;20;
73973;PMS5003;62336;-26.094;27.994;2022-10-16T08:26:02;24;22;
73973;PMS5003;62336;-26.094;27.994;2022-10-16T08:28:24;21;20;
73973;PMS5003;62336;-26.094;27.994;2022-10-16T08:30:49;19;19;
73973;PMS5003;62336;-26.094;27.994;2022-10-16T08:33:14;23;20;
73973;PMS5003;62336;-26.094;27.994;2022-10-16T08:35:40;24;22;
73973;PMS5003;62336;-26.094;27.994;2022-10-16T08:38:05;23;22;
73973;PMS5003;62336;-26.094;27.994;2022-10-16T08:40:30;19;19;
73973;PMS5003;62336;-26.094;27.994;2022-10-16T08:43:00;24;22;
73973;PMS5003;62336;-26.094;27.994;2022-10-16T08:45:24;22;22;
73973;PMS5003;62336;-26.094;27.994;2022-10-16T08:47:48;22;19;
73973;PMS5003;62336;-26.094;27.994;2022-10-16T08:50:12;21;20;
73973;PMS5003;62336;-26.094;27.994;2022-10-16T08:52:38;19;19;
73973;PMS5003;62336;-26.094;27.994;2022-10-16T08:55:02;21;21;
73973;PMS5003;62336;-26.094;27.994;2022-10-16T08:57:27;23;19;
73973;PMS5003;62336;-26.094;27.994;2022-10-16T08:59:53;22;20;
73973;PMS5003;62336;-26.094;27.994;2022-10-16T09:02:22;17;16;
73973;PMS5003;62336;-26.094;27.994;2022-10-16T09:04:48;19;18;
73973;PMS5003;62336;-26.094;27.994;2022-10-16T09:07:10;17;17;
73973;PMS5003;62336;-26.094;27.994;2022-10-16T09:09:39;23;21;
73973;PMS5003;62336;-26.094;27.994;2022-10-16T09:12:02;17;17;
73973;PMS5003;62336;-26.094;27.994;2022-10-16T09:14:34;17;17;
73973;PMS5003;62336;-26.094;27.994;2022-10-16T09:16:52;17;17;
73973;PMS5003;62336;-26.094;27.994;2022-10-16T09:19:19;18;17;
73973;PMS5003;62336;-26.094;27.994;2022-10-16T09:21:44;19;18;
73973;PMS5003;62336;-26.094;27.994;2022-10-16T09:24:09;23;23;
73973;PMS5003;62336;-26.094;27.994;2022-10-16T09:26:33;17;17;
73973;PMS5003;62336;-26.094;27.994;2022-10-16T09:28:58;24;22;
73973;PMS5003;62336;-26.094;27.994;2022-10-16T09:31:24;19;17;
73973;PMS5003;62336;-26.094;27.994;2022-10-16T09:33:51;21;21;
73973;PMS5003;62336;-26.094;27.994;2022-10-16T09:36:14;17;17;
73973;PMS5003;62336;-26.094;27.994;2022-10-16T09:38:39;22;21;
73973;PMS5003;62336;-26.094;27.994;2022-10-16T09:43:32;17;16;
73973;PMS5003;62336;-26.094;27.994;2022-10-16T09:45:56;17;15;
73973;PMS5003;62336;-26.094;27.994;2022-10-16T09:48:20;19;17;
73973;PMS5003;62336;-26.094;27.994;2022-10-16T09:50:54;18;18;
73973;PMS5003;62336;-26.094;27.994;2022-10-16T09:53:12;18;17;
73973;PMS5003;62336;-26.094;27.994;2022-10-16T09:55:47;20;19;
73973;PMS5003;62336;-26.094;27.994;2022-10-16T09:58:02;17;16;
73973;PMS5003;62336;-26.094;27.994;2022-10-16T10:00:27;20;18;
73973;PMS5003;62336;-26.094;27.994;2022-10-16T10:05:29;13;13;
73973;PMS5003;62336;-26.094;27.994;2022-10-16T10:07:56;21;20;
73973;PMS5003;62336;-26.094;27.994;2022-10-16T10:10:21;20;19;
73973;PMS5003;62336;-26.094;27.994;2022-10-16T10:12:45;19;17;
73973;PMS5003;62336;-26.094;27.994;2022-10-16T10:15:11;18;17;
73973;PMS5003;62336;-26.094;27.994;2022-10-16T10:20:13;18;18;
73973;PMS5003;62336;-26.094;27.994;2022-10-16T10:22:29;16;16;
73973;PMS5003;62336;-26.094;27.994;2022-10-16T10:24:56;18;17;
73973;PMS5003;62336;-26.094;27.994;2022-10-16T10:27:18;21;19;
73973;PMS5003;62336;-26.094;27.994;2022-10-16T10:29:46;19;18;
73973;PMS5003;62336;-26.094;27.994;2022-10-16T10:32:12;21;18;
73973;PMS5003;62336;-26.094;27.994;2022-10-16T10:34:37;18;17;
73973;PMS5003;62336;-26.094;27.994;2022-10-16T10:37:00;18;18;
73973;PMS5003;62336;-26.094;27.994;2022-10-16T10:39:25;20;19;
73973;PMS5003;62336;-26.094;27.994;2022-10-16T10:42:00;22;20;
73973;PMS5003;62336;-26.094;27.994;2022-10-16T10:44:16;19;18;
73973;PMS5003;62336;-26.094;27.994;2022-10-16T10:46:41;18;18;
73973;PMS5003;62336;-26.094;27.994;2022-10-16T10:49:10;15;14;
73973;PMS5003;62336;-26.094;27.994;2022-10-16T10:51:31;17;16;
73973;PMS5003;62336;-26.094;27.994;2022-10-16T10:53:59;15;15;
73973;PMS5003;62336;-26.094;27.994;2022-10-16T12:33:03;10;10;
73973;PMS5003;62336;-26.094;27.994;2022-10-16T12:35:30;19;17;
73973;PMS5003;62336;-26.094;27.994;2022-10-16T12:37:53;20;20;
73973;PMS5003;62336;-26.094;27.994;2022-10-16T12:40:25;20;20;
73973;PMS5003;62336;-26.094;27.994;2022-10-16T12:42:45;17;16;
73973;PMS5003;62336;-26.094;27.994;2022-10-16T12:47:37;20;20;
73973;PMS5003;62336;-26.094;27.994;2022-10-16T12:50:02;19;19;
73973;PMS5003;62336;-26.094;27.994;2022-10-16T12:52:27;18;18;
73973;PMS5003;62336;-26.094;27.994;2022-10-16T12:54:52;17;16;
73973;PMS5003;62336;-26.094;27.994;2022-10-16T12:57:23;20;18;
73973;PMS5003;62336;-26.094;27.994;2022-10-16T12:59:44;17;17;
73973;PMS5003;62336;-26.094;27.994;2022-10-16T13:04:37;21;20;
73973;PMS5003;62336;-26.094;27.994;2022-10-16T13:07:00;20;18;
73973;PMS5003;62336;-26.094;27.994;2022-10-16T13:09:27;21;20;
73973;PMS5003;62336;-26.094;27.994;2022-10-16T13:11:52;25;24;
73973;PMS5003;62336;-26.094;27.994;2022-10-16T13:14:20;22;20;
73973;PMS5003;62336;-26.094;27.994;2022-10-16T13:16:43;19;19;
73973;PMS5003;62336;-26.094;27.994;2022-10-16T13:19:09;19;18;
73973;PMS5003;62336;-26.094;27.994;2022-10-16T13:21:33;21;21;
73973;PMS5003;62336;-26.094;27.994;2022-10-16T13:23:57;26;25;
73973;PMS5003;62336;-26.094;27.994;2022-10-16T13:26:24;19;19;
73973;PMS5003;62336;-26.094;27.994;2022-10-16T13:28:47;23;20;
73973;PMS5003;62336;-26.094;27.994;2022-10-16T13:31:14;21;19;
73973;PMS5003;62336;-26.094;27.994;2022-10-16T13:33:39;21;19;
73973;PMS5003;62336;-26.094;27.994;2022-10-16T13:36:04;22;20;
73973;PMS5003;62336;-26.094;27.994;2022-10-16T13:38:30;21;19;
73973;PMS5003;62336;-26.094;27.994;2022-10-16T13:40:55;21;19;
73973;PMS5003;62336;-26.094;27.994;2022-10-16T13:43:20;20;19;
73973;PMS5003;62336;-26.094;27.994;2022-10-16T13:48:11;21;21;
73973;PMS5003;62336;-26.094;27.994;2022-10-16T13:50:36;18;17;
73973;PMS5003;62336;-26.094;27.994;2022-10-16T13:53:05;22;21;
73973;PMS5003;62336;-26.094;27.994;2022-10-16T13:55:28;23;22;
73973;PMS5003;62336;-26.094;27.994;2022-10-16T13:57:52;19;19;
73973;PMS5003;62336;-26.094;27.994;2022-10-16T14:00:19;19;18;
73973;PMS5003;62336;-26.094;27.994;2022-10-16T14:02:44;17;17;
73973;PMS5003;62336;-26.094;27.994;2022-10-16T14:05:09;18;18;
73973;PMS5003;62336;-26.094;27.994;2022-10-16T14:07:35;17;16;
73973;PMS5003;62336;-26.094;27.994;2022-10-16T14:10:02;22;21;
73973;PMS5003;62336;-26.094;27.994;2022-10-16T14:12:26;19;18;
73973;PMS5003;62336;-26.094;27.994;2022-10-16T14:14:51;17;17;
73973;PMS5003;62336;-26.094;27.994;2022-10-16T14:17:18;18;18;
73973;PMS5003;62336;-26.094;27.994;2022-10-16T14:19:45;23;21;
73973;PMS5003;62336;-26.094;27.994;2022-10-16T14:24:33;20;20;
73973;PMS5003;62336;-26.094;27.994;2022-10-16T14:26:58;18;17;
73973;PMS5003;62336;-26.094;27.994;2022-10-16T14:29:25;19;18;
73973;PMS5003;62336;-26.094;27.994;2022-10-16T14:36:40;21;19;
73973;PMS5003;62336;-26.094;27.994;2022-10-16T14:39:06;19;18;
73973;PMS5003;62336;-26.094;27.994;2022-10-16T14:41:31;20;18;
73973;PMS5003;62336;-26.094;27.994;2022-10-16T14:43:56;19;17;
73973;PMS5003;62336;-26.094;27.994;2022-10-16T14:46:21;22;20;
73973;PMS5003;62336;-26.094;27.994;2022-10-16T14:48:48;19;19;
73973;PMS5003;62336;-26.094;27.994;2022-10-16T14:51:12;20;19;
73973;PMS5003;62336;-26.094;27.994;2022-10-16T14:53:37;19;18;
73973;PMS5003;62336;-26.094;27.994;2022-10-16T14:56:06;19;18;
73973;PMS5003;62336;-26.094;27.994;2022-10-16T14:58:28;21;19;
73973;PMS5003;62336;-26.094;27.994;2022-10-16T15:00:55;19;18;
73973;PMS5003;62336;-26.094;27.994;2022-10-16T15:03:19;20;19;
73973;PMS5003;62336;-26.094;27.994;2022-10-16T15:05:44;24;21;
73973;PMS5003;62336;-26.094;27.994;2022-10-16T15:08:10;20;20;
73973;PMS5003;62336;-26.094;27.994;2022-10-16T15:10:37;27;24;
73973;PMS5003;62336;-26.094;27.994;2022-10-16T15:13:00;20;18;
73973;PMS5003;62336;-26.094;27.994;2022-10-16T15:15:30;22;20;
73973;PMS5003;62336;-26.094;27.994;2022-10-16T15:17:52;21;20;
73973;PMS5003;62336;-26.094;27.994;2022-10-16T15:20:17;24;23;
73973;PMS5003;62336;-26.094;27.994;2022-10-16T15:22:43;23;22;
73973;PMS5003;62336;-26.094;27.994;2022-10-16T15:25:10;19;19;
73973;PMS5003;62336;-26.094;27.994;2022-10-16T15:27:34;22;18;
73973;PMS5003;62336;-26.094;27.994;2022-10-16T15:30:00;23;21;
73973;PMS5003;62336;-26.094;27.994;2022-10-16T15:32:25;18;17;
73973;PMS5003;62336;-26.094;27.994;2022-10-16T15:34:50;20;18;
73973;PMS5003;62336;-26.094;27.994;2022-10-16T15:37:16;20;20;
73973;PMS5003;62336;-26.094;27.994;2022-10-16T15:39:41;17;16;
73973;PMS5003;62336;-26.094;27.994;2022-10-16T15:42:07;19;19;
73973;PMS5003;62336;-26.094;27.994;2022-10-16T15:44:33;18;17;
73973;PMS5003;62336;-26.094;27.994;2022-10-16T15:46:57;17;16;
73973;PMS5003;62336;-26.094;27.994;2022-10-16T15:49:23;21;19;
73973;PMS5003;62336;-26.094;27.994;2022-10-16T15:51:48;19;18;
73973;PMS5003;62336;-26.094;27.994;2022-10-16T15:54:13;21;20;
73973;PMS5003;62336;-26.094;27.994;2022-10-16T15:56:38;19;19;
73973;PMS5003;62336;-26.094;27.994;2022-10-16T15:59:04;22;21;
73973;PMS5003;62336;-26.094;27.994;2022-10-16T16:01:31;20;17;
73973;PMS5003;62336;-26.094;27.994;2022-10-16T16:03:55;19;18;
73973;PMS5003;62336;-26.094;27.994;2022-10-16T16:06:20;20;19;
73973;PMS5003;62336;-26.094;27.994;2022-10-16T16:08:45;23;21;
73973;PMS5003;62336;-26.094;27.994;2022-10-16T16:11:10;21;19;
73973;PMS5003;62336;-26.094;27.994;2022-10-16T16:13:36;22;19;
73973;PMS5003;62336;-26.094;27.994;2022-10-16T16:16:01;27;25;
73973;PMS5003;62336;-26.094;27.994;2022-10-16T16:18:26;31;30;
73973;PMS5003;62336;-26.094;27.994;2022-10-16T16:20:52;33;28;
73973;PMS5003;62336;-26.094;27.994;2022-10-16T16:23:17;32;30;
73973;PMS5003;62336;-26.094;27.994;2022-10-16T16:25:42;31;28;
73973;PMS5003;62336;-26.094;27.994;2022-10-16T16:28:07;33;31;
73973;PMS5003;62336;-26.094;27.994;2022-10-16T16:30:33;33;31;
73973;PMS5003;62336;-26.094;27.994;2022-10-16T16:32:58;33;29;
73973;PMS5003;62336;-26.094;27.994;2022-10-16T16:35:23;27;26;
73973;PMS5003;62336;-26.094;27.994;2022-10-16T16:37:48;27;25;
73973;PMS5003;62336;-26.094;27.994;2022-10-16T16:40:14;29;28;
73973;PMS5003;62336;-26.094;27.994;2022-10-16T16:42:40;30;26;
73973;PMS5003;62336;-26.094;27.994;2022-10-16T16:45:06;30;29;
73973;PMS5003;62336;-26.094;27.994;2022-10-16T16:47:30;33;31;
73973;PMS5003;62336;-26.094;27.994;2022-10-16T16:49:56;31;30;
73973;PMS5003;62336;-26.094;27.994;2022-10-16T16:52:21;30;28;
73973;PMS5003;62336;-26.094;27.994;2022-10-16T16:54:47;25;25;
73973;PMS5003;62336;-26.094;27.994;2022-10-16T16:57:12;28;28;
73973;PMS5003;62336;-26.094;27.994;2022-10-16T16:59:37;25;23;
73973;PMS5003;62336;-26.094;27.994;2022-10-16T17:02:03;21;21;
73973;PMS5003;62336;-26.094;27.994;2022-10-16T17:04:29;23;22;
73973;PMS5003;62336;-26.094;27.994;2022-10-16T17:06:54;26;23;
73973;PMS5003;62336;-26.094;27.994;2022-10-16T17:09:19;24;21;
73973;PMS5003;62336;-26.094;27.994;2022-10-16T17:11:45;21;20;
73973;PMS5003;62336;-26.094;27.994;2022-10-16T17:14:11;27;26;
73973;PMS5003;62336;-26.094;27.994;2022-10-16T17:16:36;24;23;
73973;PMS5003;62336;-26.094;27.994;2022-10-16T17:19:02;20;18;
73973;PMS5003;62336;-26.094;27.994;2022-10-16T17:21:26;23;23;
73973;PMS5003;62336;-26.094;27.994;2022-10-16T17:23:52;19;18;
73973;PMS5003;62336;-26.094;27.994;2022-10-16T17:26:18;23;22;
73973;PMS5003;62336;-26.094;27.994;2022-10-16T17:28:43;28;24;
73973;PMS5003;62336;-26.094;27.994;2022-10-16T17:31:09;24;24;
73973;PMS5003;62336;-26.094;27.994;2022-10-16T17:33:34;22;21;
73973;PMS5003;62336;-26.094;27.994;2022-10-16T17:36:00;23;22;
73973;PMS5003;62336;-26.094;27.994;2022-10-16T17:38:25;24;22;
73973;PMS5003;62336;-26.094;27.994;2022-10-16T17:40:51;21;20;
73973;PMS5003;62336;-26.094;27.994;2022-10-16T17:43:16;19;18;
73973;PMS5003;62336;-26.094;27.994;2022-10-16T17:45:41;22;22;
73973;PMS5003;62336;-26.094;27.994;2022-10-16T17:48:07;25;23;
73973;PMS5003;62336;-26.094;27.994;2022-10-16T17:50:31;25;24;
73973;PMS5003;62336;-26.094;27.994;2022-10-16T17:52:57;24;24;
73973;PMS5003;62336;-26.094;27.994;2022-10-16T17:55:24;21;20;
73973;PMS5003;62336;-26.094;27.994;2022-10-16T17:57:48;27;25;
73973;PMS5003;62336;-26.094;27.994;2022-10-16T18:00:14;26;24;
73973;PMS5003;62336;-26.094;27.994;2022-10-16T18:02:39;24;22;
73973;PMS5003;62336;-26.094;27.994;2022-10-16T18:05:04;27;25;
73973;PMS5003;62336;-26.094;27.994;2022-10-16T18:07:30;20;20;
73973;PMS5003;62336;-26.094;27.994;2022-10-16T18:09:55;27;24;
73973;PMS5003;62336;-26.094;27.994;2022-10-16T18:12:20;28;26;
73973;PMS5003;62336;-26.094;27.994;2022-10-16T18:14:45;24;24;
73973;PMS5003;62336;-26.094;27.994;2022-10-16T18:17:11;25;22;
73973;PMS5003;62336;-26.094;27.994;2022-10-16T18:19:36;21;20;
73973;PMS5003;62336;-26.094;27.994;2022-10-16T18:22:01;25;23;
73973;PMS5003;62336;-26.094;27.994;2022-10-16T18:24:27;23;22;
73973;PMS5003;62336;-26.094;27.994;2022-10-16T18:26:52;22;22;
73973;PMS5003;62336;-26.094;27.994;2022-10-16T18:29:17;26;23;
73973;PMS5003;62336;-26.094;27.994;2022-10-16T18:31:43;26;25;